Time;durP1;ratioP1;P1;durP2;ratioP2;P2;SDS_P1;SDS_P2;PMS_P1;PMS_P2;Temp;Humidity;BMP_temperature;BMP_pressure;BME280_temperature;BME280_humidity;BME280_pressure;Samples;Min_cycle;Max_cycle;Signal;HPM_P1;HPM_P2
2022/09/15 00:02:57;;;;;;;3.33;3.03;;;;;;;23.57;41.29;94915.94;6165232;28;103404;-77
2022/09/15 00:06:00;;;;;;;2.90;2.70;;;;;;;23.59;41.42;94919.84;6156305;28;103386;-77
2022/09/15 00:09:04;;;;;;;4.63;2.67;;;;;;;23.54;41.56;94916.59;6166111;28;106197;-77
2022/09/15 00:12:08;;;;;;;3.27;2.70;;;;;;;23.53;41.32;94907.00;6165545;28;103809;-77
2022/09/15 00:15:13;;;;;;;3.17;2.87;;;;;;;23.57;41.46;94914.06;6160091;28;103235;-78
2022/09/15 00:18:18;;;;;;;4.53;3.03;;;;;;;23.53;41.63;94907.78;6160911;28;104245;-76
2022/09/15 00:21:23;;;;;;;2.70;2.50;;;;;;;23.55;41.13;94910.13;6164772;28;107027;-76
2022/09/15 00:24:26;;;;;;;2.53;2.27;;;;;;;23.58;41.45;94917.50;6158169;28;103254;-76
2022/09/15 00:27:29;;;;;;;3.13;2.93;;;;;;;23.55;40.93;94926.16;6156726;28;103301;-76
2022/09/15 00:30:32;;;;;;;4.30;2.73;;;;;;;23.54;41.27;94922.72;6163451;28;103116;-78
2022/09/15 00:33:37;;;;;;;2.47;2.27;;;;;;;23.48;41.43;94917.84;6164749;28;103318;-76
2022/09/15 00:36:40;;;;;;;2.87;2.40;;;;;;;23.46;41.28;94914.69;6164800;28;103080;-77
2022/09/15 00:39:44;;;;;;;2.87;2.57;;;;;;;23.45;41.02;94913.91;6156745;28;103302;-75
2022/09/15 00:42:47;;;;;;;2.60;2.40;;;;;;;23.46;41.34;94917.38;6164421;28;102852;-76
2022/09/15 00:45:52;;;;;;;3.20;2.57;;;;;;;23.45;41.29;94919.25;6164273;28;103057;-76
2022/09/15 00:49:02;;;;;;;3.47;2.97;;;;;;;23.48;40.71;94912.50;6161828;28;103571;-79
2022/09/15 00:52:08;;;;;;;2.97;2.67;;;;;;;23.51;41.33;94919.88;6135458;28;103585;-77
2022/09/15 00:55:15;;;;;;;3.07;2.87;;;;;;;23.46;40.84;94925.38;6158088;28;103147;-74
2022/09/15 00:58:25;;;;;;;2.63;2.43;;;;;;;23.46;41.11;94920.81;6152496;28;102949;-78
2022/09/15 01:01:30;;;;;;;3.00;2.70;;;;;;;23.49;41.20;94930.09;6153363;28;105286;-76
2022/09/15 01:04:35;;;;;;;3.40;2.90;;;;;;;23.45;41.32;94919.25;6163803;28;103501;-76
2022/09/15 01:07:41;;;;;;;3.00;2.70;;;;;;;23.47;41.21;94908.25;6164532;28;104958;-78
2022/09/15 01:10:45;;;;;;;2.67;2.47;;;;;;;23.47;41.32;94922.38;6164380;28;104136;-77
2022/09/15 01:13:48;;;;;;;2.63;2.43;;;;;;;23.47;41.21;94916.25;6155171;28;103533;-77
2022/09/15 01:17:00;;;;;;;4.70;2.93;;;;;;;23.47;41.22;94922.38;6148543;28;103546;-74
2022/09/15 01:20:47;;;;;;;2.93;2.70;;;;;;;23.43;41.00;94910.78;6141008;28;104244;-74
2022/09/15 01:24:33;;;;;;;3.23;2.80;;;;;;;23.45;41.25;94918.47;6134738;28;103261;-74
2022/09/15 01:28:21;;;;;;;3.27;2.97;;;;;;;23.42;41.29;94906.53;6141093;28;103267;-73
2022/09/15 01:31:29;;;;;;;4.17;3.37;;;;;;;23.40;41.31;94910.63;6080896;28;103821;-77
2022/09/15 01:34:39;;;;;;;3.60;2.80;;;;;;;23.38;40.73;94905.63;6161639;28;105485;-74
2022/09/15 01:37:51;;;;;;;3.30;3.00;;;;;;;23.39;40.77;94909.06;6162311;28;103491;-76
2022/09/15 01:41:02;;;;;;;5.13;3.93;;;;;;;23.40;41.14;94907.97;6165086;28;103410;-73
2022/09/15 01:44:09;;;;;;;4.10;3.70;;;;;;;23.41;40.75;94904.19;6164089;28;103549;-73
2022/09/15 01:47:17;;;;;;;2.80;2.60;;;;;;;23.42;41.19;94916.44;6156757;28;103399;-74
2022/09/15 01:50:24;;;;;;;3.10;2.80;;;;;;;23.39;41.35;94925.09;6164395;28;105991;-74
2022/09/15 01:53:28;;;;;;;3.77;3.40;;;;;;;23.40;41.23;94926.66;6162972;28;103633;-74
2022/09/15 01:56:32;;;;;;;3.73;3.23;;;;;;;23.39;41.08;94909.06;6163884;28;103334;-74
2022/09/15 01:59:35;;;;;;;3.67;3.20;;;;;;;23.36;40.92;94912.38;6158867;28;105483;-75
2022/09/15 02:02:43;;;;;;;2.90;2.60;;;;;;;23.33;41.20;94905.75;6165067;28;102902;-74
2022/09/15 02:05:52;;;;;;;2.80;2.60;;;;;;;23.34;41.40;94917.22;6163349;28;103283;-74
2022/09/15 02:09:01;;;;;;;3.00;2.70;;;;;;;23.28;41.41;94896.00;6161213;28;104929;-74
2022/09/15 02:12:12;;;;;;;2.90;2.20;;;;;;;23.29;40.98;94894.94;6161764;28;103933;-74
2022/09/15 02:15:28;;;;;;;6.30;2.43;;;;;;;23.29;40.95;94900.28;6164421;28;105072;-73
2022/09/15 02:18:44;;;;;;;2.80;2.60;;;;;;;23.30;40.90;94893.81;6163470;28;103524;-72
2022/09/15 02:21:57;;;;;;;2.77;2.50;;;;;;;23.28;40.88;94892.56;6155786;28;103120;-74
2022/09/15 02:25:02;;;;;;;4.07;2.77;;;;;;;23.26;41.07;94898.22;6163462;28;103552;-75
2022/09/15 02:28:10;;;;;;;2.97;2.40;;;;;;;23.30;40.88;94895.72;6162871;28;103636;-74
2022/09/15 02:31:17;;;;;;;3.10;2.83;;;;;;;23.32;41.16;94892.72;6160527;28;102809;-73
2022/09/15 02:34:25;;;;;;;4.10;2.80;;;;;;;23.27;41.07;94893.66;6159294;28;103160;-73
2022/09/15 02:37:29;;;;;;;4.90;3.13;;;;;;;23.27;40.88;94890.97;6162347;28;103695;-73
2022/09/15 02:40:32;;;;;;;2.87;2.47;;;;;;;23.28;41.21;94888.00;6163381;28;103823;-73
2022/09/15 02:43:45;;;;;;;3.10;2.70;;;;;;;23.31;40.54;94886.59;6157192;28;104828;-73
2022/09/15 02:46:48;;;;;;;4.77;3.03;;;;;;;23.30;40.82;94882.38;6163871;28;105404;-73
2022/09/15 02:49:52;;;;;;;4.07;2.80;;;;;;;23.31;40.87;94886.59;6162521;28;103560;-73
2022/09/15 02:52:56;;;;;;;2.97;2.67;;;;;;;23.28;41.16;94893.34;6162757;28;104042;-73
2022/09/15 02:55:59;;;;;;;2.63;2.43;;;;;;;23.30;40.92;94893.03;6155632;28;103228;-73
2022/09/15 02:59:02;;;;;;;4.53;3.10;;;;;;;23.20;40.98;94878.13;6163032;28;103624;-73
2022/09/15 03:02:05;;;;;;;4.80;3.07;;;;;;;23.25;40.83;94883.28;6163308;28;103782;-73
2022/09/15 03:05:11;;;;;;;3.77;3.47;;;;;;;23.27;40.68;94894.44;6161479;28;104049;-73
2022/09/15 03:08:14;;;;;;;4.00;3.27;;;;;;;23.32;41.19;94893.50;6158029;28;103096;-73
2022/09/15 03:11:19;;;;;;;8.03;3.47;;;;;;;23.38;41.19;94894.94;6162085;28;103952;-72
2022/09/15 03:14:22;;;;;;;3.60;3.30;;;;;;;23.43;40.83;94891.31;6161993;28;103574;-75
2022/09/15 03:17:25;;;;;;;5.20;2.83;;;;;;;23.44;41.32;94899.00;6155795;28;103408;-75
2022/09/15 03:20:30;;;;;;;4.23;3.07;;;;;;;23.45;40.87;94900.56;6161528;28;103982;-73
2022/09/15 03:23:33;;;;;;;3.97;3.57;;;;;;;23.43;41.31;94912.66;6163780;28;103513;-73
2022/09/15 03:26:36;;;;;;;5.17;3.90;;;;;;;23.45;41.59;94927.28;6156710;28;103421;-74
2022/09/15 03:29:40;;;;;;;6.10;3.30;;;;;;;23.46;41.50;94922.72;6144162;28;103521;-74
2022/09/15 03:32:43;;;;;;;4.50;3.30;;;;;;;23.47;41.41;94926.94;6166098;28;103550;-73
2022/09/15 03:35:49;;;;;;;7.77;3.50;;;;;;;23.45;40.92;94919.25;6166334;28;103237;-74
2022/09/15 03:38:52;;;;;;;5.33;4.43;;;;;;;23.43;41.63;94926.81;6166374;28;103226;-75
2022/09/15 03:41:55;;;;;;;6.57;5.00;;;;;;;23.41;41.22;94923.66;6159369;28;103604;-74
2022/09/15 03:44:58;;;;;;;4.50;4.07;;;;;;;23.42;41.68;94924.44;6167200;28;103428;-75
2022/09/15 03:48:02;;;;;;;4.17;3.27;;;;;;;23.40;41.62;94922.09;6166565;28;103632;-76
2022/09/15 03:51:09;;;;;;;3.53;3.23;;;;;;;23.44;41.46;94924.91;6159069;28;107220;-75
2022/09/15 03:54:12;;;;;;;5.57;3.30;;;;;;;23.07;42.02;94929.78;6162420;28;104405;-75
2022/09/15 03:57:15;;;;;;;5.07;3.67;;;;;;;22.86;41.99;94921.63;6157842;28;103636;-73
2022/09/15 04:00:19;;;;;;;4.33;3.93;;;;;;;23.12;41.87;94918.94;6162230;28;103565;-75
2022/09/15 04:03:22;;;;;;;6.30;4.30;;;;;;;23.27;41.75;94917.69;6154470;28;104177;-73
2022/09/15 04:06:27;;;;;;;5.90;4.93;;;;;;;23.36;41.78;94915.03;6161565;28;103496;-74
2022/09/15 04:09:30;;;;;;;7.40;6.70;;;;;;;23.40;41.25;94921.31;6156927;28;103104;-73
2022/09/15 04:12:33;;;;;;;10.67;9.27;;;;;;;23.48;42.17;94929.31;6158702;28;103335;-74
2022/09/15 04:15:36;;;;;;;7.33;6.53;;;;;;;23.52;42.18;94930.25;6152975;28;103615;-76
2022/09/15 04:18:40;;;;;;;6.53;5.77;;;;;;;23.56;41.74;94923.16;6164761;28;103205;-73
2022/09/15 04:21:46;;;;;;;11.53;5.53;;;;;;;23.29;41.75;94923.53;6165539;28;103500;-75
2022/09/15 04:24:50;;;;;;;8.40;5.20;;;;;;;23.24;42.05;94919.09;6162800;28;103186;-72
2022/09/15 04:27:53;;;;;;;7.30;4.23;;;;;;;23.29;41.48;94905.63;6162649;28;103310;-72
2022/09/15 04:31:04;;;;;;;4.20;3.80;;;;;;;23.30;41.17;94904.50;6166254;28;103307;-73
2022/09/15 04:34:08;;;;;;;4.67;3.90;;;;;;;23.32;41.39;94908.75;6165789;28;103303;-73
2022/09/15 04:37:12;;;;;;;6.90;4.43;;;;;;;23.33;41.36;94911.09;6158045;28;105879;-74
2022/09/15 04:40:16;;;;;;;5.17;3.70;;;;;;;23.33;40.99;94911.09;6164837;28;106945;-74
2022/09/15 04:43:19;;;;;;;6.67;3.80;;;;;;;23.33;41.09;94918.31;6165163;28;103608;-73
2022/09/15 04:46:22;;;;;;;4.30;3.50;;;;;;;23.34;41.42;94918.00;6165552;28;103590;-73
2022/09/15 04:49:27;;;;;;;3.87;3.47;;;;;;;23.35;40.96;94924.13;6158547;28;103318;-74
2022/09/15 04:52:31;;;;;;;4.40;3.50;;;;;;;23.37;40.62;94913.94;6166492;28;106389;-73
2022/09/15 04:55:35;;;;;;;5.10;3.30;;;;;;;23.34;40.68;94909.22;6165362;28;103574;-72
2022/09/15 04:58:38;;;;;;;5.67;4.20;;;;;;;23.31;41.46;94921.31;6164350;28;103273;-74
2022/09/15 05:01:42;;;;;;;5.60;4.73;;;;;;;23.34;40.77;94922.56;6160660;28;102940;-74
2022/09/15 05:04:48;;;;;;;5.73;4.73;;;;;;;23.37;41.23;94924.63;6165579;28;103350;-74
2022/09/15 05:07:53;;;;;;;4.83;4.43;;;;;;;23.37;41.25;94921.94;6165410;28;103552;-73
2022/09/15 05:10:59;;;;;;;4.50;4.10;;;;;;;23.37;41.12;94917.41;6157095;28;104262;-72
2022/09/15 05:14:02;;;;;;;3.97;3.60;;;;;;;23.39;41.21;94914.41;6165238;28;103736;-72
2022/09/15 05:17:05;;;;;;;6.80;4.40;;;;;;;23.40;40.99;94915.97;6165151;28;105508;-72
2022/09/15 05:20:08;;;;;;;8.60;4.60;;;;;;;23.38;41.19;94905.63;6165688;28;103311;-72
2022/09/15 05:23:14;;;;;;;4.53;4.13;;;;;;;23.28;40.89;94909.34;6157912;28;103103;-72
2022/09/15 05:26:20;;;;;;;6.30;4.03;;;;;;;23.25;41.58;94907.31;6165202;28;103163;-74
2022/09/15 05:29:23;;;;;;;6.30;4.80;;;;;;;23.13;41.13;94899.16;6165288;28;104539;-73
2022/09/15 05:32:26;;;;;;;4.90;4.23;;;;;;;22.90;42.05;94892.44;6165623;28;103192;-72
2022/09/15 05:35:29;;;;;;;6.60;4.67;;;;;;;22.85;42.11;94905.91;6157556;28;103905;-75
2022/09/15 05:38:34;;;;;;;6.03;4.80;;;;;;;23.05;41.54;94893.84;6164560;28;103623;-73
2022/09/15 05:41:37;;;;;;;8.50;4.57;;;;;;;23.12;42.00;94888.81;6163832;28;103225;-73
2022/09/15 05:44:40;;;;;;;4.43;3.53;;;;;;;22.76;42.46;94887.25;6160162;28;104307;-73
2022/09/15 05:47:43;;;;;;;5.50;3.80;;;;;;;22.69;42.49;94890.41;6161205;28;103269;-73
2022/09/15 05:50:49;;;;;;;5.53;3.80;;;;;;;22.95;41.90;94885.03;6164967;28;103231;-72
2022/09/15 05:53:53;;;;;;;6.03;3.80;;;;;;;23.00;41.93;94878.75;6163639;28;103207;-72
2022/09/15 05:56:56;;;;;;;3.70;3.30;;;;;;;23.18;41.78;94877.63;6156672;28;103422;-72
2022/09/15 06:00:00;;;;;;;4.40;3.63;;;;;;;23.32;41.59;94871.38;6164794;28;103702;-73
2022/09/15 06:03:03;;;;;;;3.43;3.20;;;;;;;23.42;41.16;94858.47;6164672;28;102803;-73
2022/09/15 06:06:07;;;;;;;4.10;3.70;;;;;;;23.49;41.16;94853.41;6164286;28;103451;-72
2022/09/15 06:09:11;;;;;;;3.77;3.47;;;;;;;23.57;41.21;94862.53;6156570;28;103242;-73
2022/09/15 06:12:16;;;;;;;5.60;3.77;;;;;;;23.65;41.06;94859.03;6163310;28;103426;-72
2022/09/15 06:15:19;;;;;;;7.53;4.47;;;;;;;23.69;41.22;94867.16;6163713;28;103078;-73
2022/09/15 06:18:22;;;;;;;4.87;4.37;;;;;;;23.73;41.35;94871.56;6160117;28;103345;-72
2022/09/15 06:21:28;;;;;;;6.60;4.93;;;;;;;23.81;41.29;94886.78;6160603;28;105102;-72
2022/09/15 06:24:32;;;;;;;4.53;4.10;;;;;;;23.87;41.05;94890.06;6164074;28;103633;-73
2022/09/15 06:27:35;;;;;;;5.20;4.43;;;;;;;23.94;41.38;94889.56;6163953;28;103415;-73
2022/09/15 06:30:39;;;;;;;4.90;4.40;;;;;;;23.97;41.34;94881.69;6155192;28;103123;-73
2022/09/15 06:33:43;;;;;;;7.20;4.30;;;;;;;24.03;41.35;94858.28;6164090;28;103409;-74
2022/09/15 06:36:46;;;;;;;6.70;4.30;;;;;;;24.07;41.45;94859.19;6163596;28;103251;-74
2022/09/15 06:39:51;;;;;;;4.23;3.83;;;;;;;24.11;41.73;94868.13;6163776;28;103530;-74
2022/09/15 06:42:55;;;;;;;6.07;4.00;;;;;;;24.17;41.65;94864.16;6155157;28;104350;-74
2022/09/15 06:46:04;;;;;;;8.10;7.20;;;;;;;24.19;41.68;94856.59;6163100;28;103207;-73
2022/09/15 06:49:07;;;;;;;9.40;6.60;;;;;;;24.25;41.45;94860.66;6163106;28;103376;-74
2022/09/15 06:52:10;;;;;;;10.87;6.90;;;;;;;24.30;41.42;94871.16;6159813;28;103208;-74
2022/09/15 06:55:15;;;;;;;10.40;6.90;;;;;;;24.35;41.27;94872.88;6158715;28;103706;-74
2022/09/15 06:58:18;;;;;;;7.00;6.27;;;;;;;24.39;41.20;94877.25;6162812;28;103426;-75
2022/09/15 07:01:24;;;;;;;9.83;5.73;;;;;;;24.42;41.09;94881.97;6163087;28;103327;-74
2022/09/15 07:04:27;;;;;;;6.90;5.60;;;;;;;24.42;41.16;94887.31;6156081;28;105256;-74
2022/09/15 07:07:30;;;;;;;6.57;5.20;;;;;;;24.43;41.16;94888.88;6163119;28;103418;-74
2022/09/15 07:10:34;;;;;;;7.63;5.30;;;;;;;24.46;40.92;94896.25;6163731;28;103727;-74
2022/09/15 07:13:38;;;;;;;9.00;5.10;;;;;;;24.49;40.94;94903.63;6162190;28;103239;-74
2022/09/15 07:16:41;;;;;;;5.60;4.70;;;;;;;24.54;40.75;94909.91;6155666;28;104029;-74
2022/09/15 07:19:44;;;;;;;9.40;5.27;;;;;;;24.54;41.12;94915.25;6163173;28;103080;-74
2022/09/15 07:22:47;;;;;;;8.53;5.30;;;;;;;24.62;40.58;94917.09;6162925;28;103389;-74
2022/09/15 07:25:52;;;;;;;5.70;4.70;;;;;;;24.60;40.69;94925.44;6163488;28;103196;-73
2022/09/15 07:28:57;;;;;;;6.13;4.23;;;;;;;24.63;40.59;94918.66;6154723;28;103310;-74
2022/09/15 07:32:00;;;;;;;6.60;4.53;;;;;;;24.48;39.67;94928.81;6163002;28;106276;-73
2022/09/15 07:35:03;;;;;;;5.30;4.30;;;;;;;24.41;39.48;94939.25;6163544;28;107063;-74
2022/09/15 07:38:06;;;;;;;6.87;4.20;;;;;;;24.32;39.28;94949.19;6157298;28;103290;-74
2022/09/15 07:41:13;;;;;;;7.77;4.23;;;;;;;24.26;39.79;94957.72;6160992;28;103723;-72
2022/09/15 07:44:17;;;;;;;5.67;4.50;;;;;;;24.36;39.41;94960.00;6162196;28;106758;-74
2022/09/15 07:47:20;;;;;;;5.40;4.90;;;;;;;24.30;39.41;94948.72;6162442;28;103568;-73
2022/09/15 07:50:23;;;;;;;5.33;4.33;;;;;;;24.43;39.26;94941.59;6154316;28;103622;-72
2022/09/15 07:53:27;;;;;;;6.53;4.00;;;;;;;24.44;39.51;94938.59;6161972;28;103243;-73
2022/09/15 07:56:32;;;;;;;5.73;4.17;;;;;;;24.61;38.85;94926.22;6162146;28;103068;-72
2022/09/15 07:59:35;;;;;;;5.00;4.50;;;;;;;24.69;39.09;94918.16;6161976;28;103077;-74
2022/09/15 08:02:43;;;;;;;6.30;4.90;;;;;;;24.74;39.13;94917.19;6154594;28;103201;-73
2022/09/15 08:05:46;;;;;;;5.20;4.57;;;;;;;24.76;38.84;94923.78;6162503;28;103232;-73
2022/09/15 08:08:50;;;;;;;5.23;4.73;;;;;;;24.82;38.74;94928.94;6163506;28;103034;-73
2022/09/15 08:12:03;;;;;;;5.10;4.60;;;;;;;24.82;39.02;94918.22;6162602;28;105391;-73
2022/09/15 08:15:07;;;;;;;5.90;4.73;;;;;;;24.84;38.71;94914.13;6161618;28;106143;-72
2022/09/15 08:18:11;;;;;;;5.73;4.90;;;;;;;24.83;39.02;94923.25;6166282;28;104256;-73
2022/09/15 08:21:16;;;;;;;5.57;5.07;;;;;;;24.86;39.13;94916.47;6165857;28;103023;-72
2022/09/15 08:24:21;;;;;;;5.63;5.00;;;;;;;24.89;38.90;94916.63;6159129;28;103272;-73
2022/09/15 08:27:25;;;;;;;5.50;4.93;;;;;;;24.91;38.83;94911.72;6165863;28;103428;-72
2022/09/15 08:30:29;;;;;;;6.73;5.20;;;;;;;25.04;38.86;94907.22;6169567;28;103377;-73
2022/09/15 08:33:32;;;;;;;5.60;5.10;;;;;;;25.12;38.55;94894.84;6166111;28;103332;-74
2022/09/15 08:36:35;;;;;;;6.70;5.27;;;;;;;25.11;38.78;94883.34;6158246;28;102940;-73
2022/09/15 08:39:39;;;;;;;7.97;4.90;;;;;;;25.05;38.98;94890.81;6166561;28;104117;-73
2022/09/15 08:42:46;;;;;;;8.30;5.23;;;;;;;25.11;38.43;94891.41;6166295;28;103418;-75
2022/09/15 08:45:55;;;;;;;7.90;4.77;;;;;;;25.19;38.12;94887.06;6161462;28;103094;-74
2022/09/15 08:49:04;;;;;;;7.80;4.63;;;;;;;25.25;38.34;94880.41;6162361;28;102804;-75
2022/09/15 08:52:16;;;;;;;10.50;4.80;;;;;;;25.32;38.18;94870.69;6166597;28;103235;-74
2022/09/15 08:55:26;;;;;;;6.60;4.40;;;;;;;25.40;37.78;94874.47;6165469;28;103413;-74
2022/09/15 08:58:34;;;;;;;7.37;5.13;;;;;;;25.44;37.64;94877.25;6159166;28;103686;-74
2022/09/15 09:02:04;;;;;;;7.00;4.80;;;;;;;25.47;38.16;94877.38;6166042;28;103105;-74
2022/09/15 09:05:21;;;;;;;6.50;4.80;;;;;;;25.54;37.81;94863.41;6166359;28;103485;-75
2022/09/15 09:09:02;;;;;;;10.03;5.80;;;;;;;25.55;37.68;94855.06;6163438;28;103545;-76
2022/09/15 09:12:20;;;;;;;6.60;4.80;;;;;;;25.56;38.16;94851.28;6160566;28;103597;-73
2022/09/15 09:15:35;;;;;;;5.97;4.50;;;;;;;25.59;38.13;94863.22;6166096;28;103321;-74
2022/09/15 09:19:13;;;;;;;7.70;4.37;;;;;;;25.62;38.13;94865.22;6165313;28;103511;-73
2022/09/15 09:22:20;;;;;;;5.20;4.53;;;;;;;25.64;37.97;94855.75;6159420;28;103742;-74
2022/09/15 09:25:25;;;;;;;8.37;5.57;;;;;;;25.64;38.56;94847.69;6165744;28;106526;-73
2022/09/15 09:28:32;;;;;;;6.20;4.63;;;;;;;25.68;38.04;94850.50;6165554;28;103463;-73
2022/09/15 09:31:36;;;;;;;7.20;4.50;;;;;;;25.61;38.49;94851.06;6161608;28;103240;-73
2022/09/15 09:34:45;;;;;;;6.90;4.33;;;;;;;25.62;38.49;94841.09;6163065;28;103318;-73
2022/09/15 09:37:52;;;;;;;8.13;4.30;;;;;;;25.63;38.91;94832.72;6165464;28;103456;-73
2022/09/15 09:40:56;;;;;;;6.30;4.60;;;;;;;25.64;38.65;94814.75;6165397;28;103410;-73
2022/09/15 09:44:09;;;;;;;4.93;4.43;;;;;;;25.63;38.72;94816.66;6159076;28;103282;-73
2022/09/15 09:47:15;;;;;;;9.30;4.97;;;;;;;25.63;38.48;94819.34;6165675;28;102663;-73
2022/09/15 09:50:35;;;;;;;6.10;4.10;;;;;;;25.69;38.47;94815.31;6164009;28;103722;-73
2022/09/15 09:53:39;;;;;;;7.00;4.50;;;;;;;25.67;38.46;94820.22;6164306;28;103530;-74
2022/09/15 09:56:42;;;;;;;5.10;4.60;;;;;;;25.67;38.49;94812.19;6158557;28;103270;-73
2022/09/15 09:59:47;;;;;;;4.97;4.40;;;;;;;25.68;38.62;94818.31;6164978;28;103226;-74
2022/09/15 10:02:51;;;;;;;7.90;5.30;;;;;;;25.63;38.65;94805.94;6164656;28;102997;-73
2022/09/15 10:06:03;;;;;;;8.67;4.67;;;;;;;25.64;38.86;94815.53;6157022;28;103138;-73
2022/09/15 10:09:10;;;;;;;4.90;4.40;;;;;;;25.66;38.69;94804.47;6164413;28;103634;-72
2022/09/15 10:12:21;;;;;;;9.10;4.97;;;;;;;25.65;38.73;94798.34;6164612;28;103316;-73
2022/09/15 10:15:27;;;;;;;5.93;5.30;;;;;;;25.64;38.93;94796.00;6164369;28;103337;-72
2022/09/15 10:18:35;;;;;;;5.67;5.17;;;;;;;25.59;39.19;94786.28;6156649;28;103107;-73
2022/09/15 10:21:39;;;;;;;4.97;4.57;;;;;;;25.62;38.83;94793.66;6163263;28;102890;-72
2022/09/15 10:24:42;;;;;;;6.33;4.80;;;;;;;25.59;38.96;94799.69;6164299;28;103563;-72
2022/09/15 10:28:01;;;;;;;6.27;5.30;;;;;;;25.59;39.13;94799.69;6162965;28;103570;-75
2022/09/15 10:31:06;;;;;;;5.67;4.90;;;;;;;25.57;39.22;94799.25;6159602;28;103410;-72
2022/09/15 10:34:29;;;;;;;5.37;4.90;;;;;;;25.55;39.08;94796.13;6163592;28;103095;-74
2022/09/15 10:37:36;;;;;;;6.57;4.77;;;;;;;25.53;39.27;94773.44;6163801;28;103213;-72
2022/09/15 10:40:45;;;;;;;4.70;4.20;;;;;;;25.49;39.32;94786.72;6157121;28;103586;-72
2022/09/15 10:44:04;;;;;;;5.10;4.60;;;;;;;25.52;39.52;94788.72;6163683;28;103530;-72
2022/09/15 10:47:19;;;;;;;4.67;4.17;;;;;;;25.52;39.43;94772.66;6163568;28;103545;-73
2022/09/15 10:50:30;;;;;;;4.90;4.50;;;;;;;25.49;39.26;94764.50;6162756;28;103591;-74
2022/09/15 10:53:57;;;;;;;5.73;4.50;;;;;;;25.46;39.37;94774.00;6157680;28;103118;-74
2022/09/15 10:57:08;;;;;;;4.90;4.43;;;;;;;25.44;39.53;94765.50;6164107;28;103601;-73
2022/09/15 11:00:17;;;;;;;7.27;4.80;;;;;;;25.39;39.66;94763.06;6163277;28;103131;-73
2022/09/15 11:03:52;;;;;;;5.07;4.63;;;;;;;25.38;39.59;94750.78;6156833;28;103520;-73
2022/09/15 11:07:04;;;;;;;4.97;4.43;;;;;;;25.36;39.53;94744.94;6163388;28;103670;-72
2022/09/15 11:10:14;;;;;;;6.50;4.50;;;;;;;25.33;39.76;94742.91;6163394;28;103424;-73
2022/09/15 11:13:26;;;;;;;5.10;4.57;;;;;;;25.36;39.63;94753.75;6160684;28;103096;-73
2022/09/15 11:16:39;;;;;;;6.30;4.93;;;;;;;25.32;39.98;94739.44;6159882;28;104463;-73
2022/09/15 11:20:12;;;;;;;5.23;4.30;;;;;;;25.32;39.80;94739.44;6163141;28;103053;-74
2022/09/15 11:23:21;;;;;;;4.80;4.40;;;;;;;25.28;40.08;94733.19;6161219;28;103309;-73
2022/09/15 11:26:30;;;;;;;5.90;5.13;;;;;;;25.29;40.32;94731.31;6155888;28;103228;-73
2022/09/15 11:29:41;;;;;;;5.53;4.43;;;;;;;25.27;39.97;94720.16;6164413;28;103966;-73
2022/09/15 11:32:51;;;;;;;6.83;4.30;;;;;;;25.26;40.22;94718.59;6162975;28;103326;-73
2022/09/15 11:36:06;;;;;;;5.20;4.63;;;;;;;25.25;40.19;94725.06;6160444;28;103292;-73
2022/09/15 11:39:19;;;;;;;4.83;3.83;;;;;;;25.25;40.19;94725.06;6159216;28;103288;-73
2022/09/15 11:42:27;;;;;;;7.43;5.10;;;;;;;25.24;40.15;94716.25;6162994;28;103114;-73
2022/09/15 11:45:47;;;;;;;5.03;4.53;;;;;;;25.24;40.15;94718.91;6167490;28;103282;-73
2022/09/15 11:48:57;;;;;;;5.20;4.70;;;;;;;25.25;40.11;94717.03;6160565;28;105658;-73
2022/09/15 11:52:07;;;;;;;5.00;4.50;;;;;;;25.28;39.73;94717.13;6167701;28;103440;-73
2022/09/15 11:55:22;;;;;;;5.93;4.10;;;;;;;25.30;39.70;94711.44;6167028;28;103178;-73
2022/09/15 11:58:34;;;;;;;6.70;4.53;;;;;;;25.32;39.80;94711.88;6165944;28;103159;-73
2022/09/15 12:01:47;;;;;;;7.10;4.17;;;;;;;25.31;39.61;94696.94;6161394;28;103472;-73
2022/09/15 12:05:03;;;;;;;4.70;4.10;;;;;;;25.31;39.29;94692.34;6166870;28;103055;-74
2022/09/15 12:08:14;;;;;;;6.10;4.53;;;;;;;25.31;39.44;94688.91;6166983;28;103313;-73
2022/09/15 12:11:22;;;;;;;4.90;4.40;;;;;;;25.28;39.84;94681.53;6158941;28;103202;-73
2022/09/15 12:14:30;;;;;;;6.67;4.60;;;;;;;25.22;39.63;94672.16;6166714;28;103082;-74
2022/09/15 12:17:40;;;;;;;5.57;4.80;;;;;;;25.24;39.76;94664.56;6166760;28;104420;-73
2022/09/15 12:20:48;;;;;;;7.23;4.27;;;;;;;25.25;39.84;94650.06;6166384;28;103161;-73
2022/09/15 12:23:57;;;;;;;5.17;4.50;;;;;;;25.25;39.57;94653.53;6160245;28;103444;-73
2022/09/15 12:27:02;;;;;;;4.83;4.07;;;;;;;25.26;39.56;94651.63;6166232;28;103600;-73
2022/09/15 12:30:26;;;;;;;4.33;3.93;;;;;;;25.24;39.71;94645.84;6165714;28;103638;-74
2022/09/15 12:33:53;;;;;;;4.90;4.33;;;;;;;25.25;39.51;94648.16;6159999;28;103456;-73
2022/09/15 12:37:07;;;;;;;5.13;4.20;;;;;;;25.25;39.13;94639.34;6166377;28;103957;-73
2022/09/15 12:40:28;;;;;;;4.90;3.90;;;;;;;25.26;39.19;94632.88;6167000;28;105886;-73
2022/09/15 12:43:32;;;;;;;5.10;4.10;;;;;;;25.25;39.17;94634.00;6166903;28;103383;-73
2022/09/15 12:46:35;;;;;;;5.10;3.83;;;;;;;25.26;38.68;94627.53;6159570;28;102784;-73
2022/09/15 12:49:43;;;;;;;9.27;4.83;;;;;;;25.27;38.97;94626.41;6165666;28;103576;-72
2022/09/15 12:52:50;;;;;;;6.90;4.10;;;;;;;25.27;38.83;94615.69;6166005;28;103448;-73
2022/09/15 12:55:55;;;;;;;4.43;4.00;;;;;;;25.26;38.91;94616.81;6162444;28;104103;-73
2022/09/15 12:59:05;;;;;;;4.33;3.50;;;;;;;25.26;38.68;94620.28;6162280;28;103919;-73
2022/09/15 13:02:42;;;;;;;5.37;3.97;;;;;;;25.24;38.69;94614.47;6165211;28;103239;-73
2022/09/15 13:06:18;;;;;;;4.77;3.70;;;;;;;25.26;38.68;94614.13;6165637;28;103351;-72
2022/09/15 13:09:28;;;;;;;5.10;3.70;;;;;;;25.25;38.48;94618.72;6158579;28;103029;-73
2022/09/15 13:12:36;;;;;;;4.20;3.40;;;;;;;25.22;38.79;94608.69;6166106;28;103282;-72
2022/09/15 13:15:46;;;;;;;6.83;3.70;;;;;;;25.18;38.96;94610.44;6165826;28;103822;-72
2022/09/15 13:18:58;;;;;;;5.57;3.70;;;;;;;25.23;38.67;94620.16;6159503;28;103027;-74
2022/09/15 13:22:06;;;;;;;7.30;3.77;;;;;;;25.21;38.68;94606.34;6164834;28;103019;-72
2022/09/15 13:25:16;;;;;;;4.87;3.60;;;;;;;25.23;38.73;94610.22;6165572;28;103121;-72
2022/09/15 13:28:21;;;;;;;5.43;3.67;;;;;;;25.23;38.17;94609.44;6165074;28;103291;-73
2022/09/15 13:31:38;;;;;;;5.37;3.90;;;;;;;25.24;38.17;94605.66;6158401;28;103451;-73
2022/09/15 13:35:03;;;;;;;4.83;3.70;;;;;;;25.26;38.39;94603.41;6164366;28;103326;-73
2022/09/15 13:38:47;;;;;;;5.50;3.53;;;;;;;25.23;38.34;94604.88;6161511;28;103917;-73
2022/09/15 13:42:11;;;;;;;4.70;3.97;;;;;;;25.20;38.58;94592.13;6158636;28;103032;-74
2022/09/15 13:45:34;;;;;;;6.57;3.70;;;;;;;25.21;38.52;94590.25;6164956;28;103341;-75
2022/09/15 13:48:55;;;;;;;6.50;3.90;;;;;;;25.21;38.66;94598.31;6164807;28;103561;-73
2022/09/15 13:52:02;;;;;;;4.43;3.80;;;;;;;25.19;38.67;94592.47;6165280;28;103391;-73
2022/09/15 13:55:26;;;;;;;4.80;3.80;;;;;;;25.17;38.81;94590.13;6157540;28;103631;-73
2022/09/15 13:58:30;;;;;;;6.50;4.50;;;;;;;25.17;39.09;94586.69;6166091;28;102987;-73
2022/09/15 14:01:54;;;;;;;5.93;4.20;;;;;;;25.15;39.00;94581.66;6164578;28;102718;-72
2022/09/15 14:04:58;;;;;;;5.97;3.83;;;;;;;25.15;39.25;94584.34;6157265;28;103130;-73
2022/09/15 14:08:05;;;;;;;4.77;3.83;;;;;;;25.17;38.70;94582.09;6164235;28;106208;-74
2022/09/15 14:11:11;;;;;;;6.90;3.60;;;;;;;25.24;38.23;94573.53;6164258;28;103257;-74
2022/09/15 14:14:34;;;;;;;4.37;3.23;;;;;;;25.21;38.80;94580.34;6164812;28;103002;-74
2022/09/15 14:17:44;;;;;;;4.70;3.27;;;;;;;25.18;38.36;94564.91;6157133;28;103114;-73
2022/09/15 14:20:59;;;;;;;5.33;4.00;;;;;;;25.19;38.61;94576.41;6164779;28;103869;-74
2022/09/15 14:24:05;;;;;;;6.23;3.33;;;;;;;25.17;38.32;94573.28;6164282;28;103468;-74
2022/09/15 14:27:10;;;;;;;6.10;3.07;;;;;;;25.29;37.80;94560.66;6156369;28;103235;-73
2022/09/15 14:30:19;;;;;;;5.40;2.90;;;;;;;25.25;37.83;94567.03;6164501;28;105476;-73
2022/09/15 14:33:22;;;;;;;7.47;2.60;;;;;;;25.19;38.48;94568.38;6163770;28;103289;-73
2022/09/15 14:36:29;;;;;;;8.63;3.13;;;;;;;25.29;38.87;94567.91;6163845;28;103614;-73